Time;durP1;ratioP1;P1;durP2;ratioP2;P2;SDS_P1;SDS_P2;PMS_P1;PMS_P2;Temp;Humidity;BMP_temperature;BMP_pressure;BME280_temperature;BME280_humidity;BME280_pressure;Samples;Min_cycle;Max_cycle;Signal;HPM_P1;HPM_P2
2021/01/21 00:01:38;;;;;;;6.25;2.20;;;10.90;99.90;;;;;;5094672;28;20082;-71
2021/01/21 00:04:04;;;;;;;8.75;2.50;;;11.00;99.90;;;;;;5093721;28;20081;-71
2021/01/21 00:06:30;;;;;;;6.32;1.73;;;11.00;99.90;;;;;;5094919;28;20167;-71
2021/01/21 00:08:55;;;;;;;7.80;1.85;;;10.90;99.90;;;;;;5094315;28;20062;-71
2021/01/21 00:11:21;;;;;;;3.33;1.98;;;10.80;99.90;;;;;;5094705;28;20035;-71
2021/01/21 00:13:46;;;;;;;10.25;2.05;;;10.80;99.90;;;;;;5094756;28;20036;-71
2021/01/21 00:16:12;;;;;;;4.20;2.35;;;10.80;99.90;;;;;;5093546;28;20028;-71
2021/01/21 00:18:37;;;;;;;4.57;2.13;;;10.70;99.90;;;;;;5094688;28;20027;-71
2021/01/21 00:21:03;;;;;;;6.65;2.28;;;10.70;99.90;;;;;;5094656;28;20074;-71
2021/01/21 00:23:30;;;;;;;5.68;2.10;;;10.70;99.90;;;;;;5094186;28;20370;-70
2021/01/21 00:25:58;;;;;;;9.10;2.38;;;10.70;99.90;;;;;;5094539;28;20023;-71
2021/01/21 00:28:24;;;;;;;6.93;2.05;;;10.60;99.90;;;;;;5094256;28;20016;-71
2021/01/21 00:30:49;;;;;;;5.63;2.08;;;10.60;99.90;;;;;;5094533;28;20039;-71
2021/01/21 00:33:15;;;;;;;5.25;1.77;;;10.60;99.90;;;;;;5094393;28;20047;-71
2021/01/21 00:35:40;;;;;;;5.18;2.08;;;10.60;99.90;;;;;;5094401;28;20016;-71
2021/01/21 00:38:06;;;;;;;3.92;1.95;;;10.60;99.90;;;;;;5094409;28;20032;-71
2021/01/21 00:40:31;;;;;;;6.88;2.60;;;10.70;99.90;;;;;;5093798;28;20020;-71
2021/01/21 00:42:57;;;;;;;5.25;2.00;;;10.70;99.90;;;;;;5093071;28;20020;-71
2021/01/21 00:45:23;;;;;;;4.70;1.90;;;10.70;99.90;;;;;;5075630;28;20078;-71
2021/01/21 00:47:49;;;;;;;3.70;2.10;;;10.80;99.90;;;;;;5094296;28;20063;-71
2021/01/21 00:50:15;;;;;;;3.08;1.88;;;11.00;99.90;;;;;;5093958;28;20510;-71
2021/01/21 00:52:40;;;;;;;4.18;1.95;;;11.00;99.90;;;;;;5093532;28;20040;-70
2021/01/21 00:55:07;;;;;;;3.65;1.85;;;11.00;99.90;;;;;;5093613;28;20028;-71
2021/01/21 00:57:32;;;;;;;5.43;2.20;;;11.00;99.90;;;;;;5094159;28;20020;-71
2021/01/21 00:59:58;;;;;;;4.95;2.35;;;11.00;99.90;;;;;;5093566;28;20096;-71
2021/01/21 01:02:23;;;;;;;4.15;2.08;;;10.90;99.90;;;;;;5093539;28;20052;-71
2021/01/21 01:04:49;;;;;;;8.35;1.90;;;11.00;99.90;;;;;;5094087;28;20032;-71
2021/01/21 01:07:14;;;;;;;5.20;2.15;;;11.00;99.90;;;;;;5093526;28;20036;-71
2021/01/21 01:09:40;;;;;;;5.63;1.88;;;11.10;99.90;;;;;;5094028;28;20028;-71
2021/01/21 01:12:06;;;;;;;8.45;1.77;;;11.10;99.90;;;;;;5093960;28;20036;-71
2021/01/21 01:14:31;;;;;;;8.20;1.60;;;11.10;99.90;;;;;;5093422;28;20024;-71
2021/01/21 01:16:57;;;;;;;4.00;1.80;;;11.20;99.90;;;;;;5093949;28;20028;-71
2021/01/21 01:19:22;;;;;;;2.78;1.50;;;11.20;99.90;;;;;;5093955;28;20027;-71
2021/01/21 01:21:48;;;;;;;4.45;1.55;;;11.10;99.90;;;;;;5093938;28;20032;-70
2021/01/21 01:24:13;;;;;;;4.93;2.03;;;11.10;99.90;;;;;;5093914;28;20020;-70
2021/01/21 01:26:39;;;;;;;4.80;2.22;;;11.30;99.90;;;;;;5093623;28;20028;-70
2021/01/21 01:29:04;;;;;;;4.25;1.50;;;11.30;99.90;;;;;;5093855;28;20462;-71
2021/01/21 01:31:30;;;;;;;3.05;1.45;;;11.20;99.90;;;;;;5093757;28;20044;-71
2021/01/21 01:33:55;;;;;;;2.90;1.60;;;11.20;99.90;;;;;;5094105;28;20024;-71
2021/01/21 01:36:21;;;;;;;3.42;1.50;;;11.10;99.90;;;;;;5095955;28;20048;-70
2021/01/21 01:38:46;;;;;;;6.80;1.98;;;11.20;99.90;;;;;;5097468;28;20070;-70
2021/01/21 01:41:12;;;;;;;5.20;1.67;;;11.10;99.90;;;;;;5097391;28;20017;-70
2021/01/21 01:43:38;;;;;;;3.58;1.77;;;11.10;99.90;;;;;;5097598;28;20484;-70
2021/01/21 01:46:06;;;;;;;4.03;1.55;;;11.10;99.90;;;;;;5097571;28;20032;-71
2021/01/21 01:48:32;;;;;;;3.45;1.80;;;11.10;99.90;;;;;;5095698;28;20480;-71
2021/01/21 01:51:00;;;;;;;7.45;1.40;;;11.00;99.90;;;;;;5097241;28;20024;-69
2021/01/21 01:53:29;;;;;;;2.58;1.67;;;11.00;99.90;;;;;;5097349;28;20028;-71
2021/01/21 01:55:56;;;;;;;6.90;2.00;;;11.10;99.90;;;;;;5097131;28;20365;-71
2021/01/21 01:58:22;;;;;;;3.45;1.63;;;11.20;99.90;;;;;;5097318;28;20024;-70
2021/01/21 02:00:49;;;;;;;4.95;1.60;;;11.10;99.90;;;;;;5097031;28;20022;-69
2021/01/21 02:03:15;;;;;;;3.75;1.30;;;11.20;99.90;;;;;;5097258;28;20389;-69
2021/01/21 02:05:40;;;;;;;4.18;1.60;;;11.10;99.90;;;;;;5097190;28;20119;-70
2021/01/21 02:08:06;;;;;;;4.97;1.75;;;11.20;99.90;;;;;;5097171;28;20031;-69
2021/01/21 02:10:33;;;;;;;5.85;1.98;;;11.10;99.90;;;;;;5095658;28;20054;-69
2021/01/21 02:13:28;;;;;;;4.07;1.67;;;11.10;99.90;;;;;;5096472;28;20016;-70
2021/01/21 02:16:34;;;;;;;7.22;1.95;;;11.00;99.90;;;;;;5097000;28;20100;-69
2021/01/21 02:19:38;;;;;;;3.95;1.58;;;11.10;99.90;;;;;;5096268;28;20056;-71
2021/01/21 02:22:43;;;;;;;3.00;1.42;;;11.20;99.90;;;;;;5096313;28;20032;-71
2021/01/21 02:25:21;;;;;;;2.92;1.40;;;11.30;99.90;;;;;;5096165;28;20030;-71
2021/01/21 02:30:56;;;;;;;5.32;1.75;;;11.20;99.90;;;;;;5090638;28;20437;-71
2021/01/21 02:33:59;;;;;;;4.10;1.50;;;11.30;99.90;;;;;;5091331;28;20028;-71
2021/01/21 02:36:32;;;;;;;3.80;1.40;;;11.20;99.90;;;;;;5091234;28;20025;-71
2021/01/21 02:39:00;;;;;;;4.28;1.38;;;11.20;99.90;;;;;;5089979;28;20358;-71
2021/01/21 02:41:25;;;;;;;3.75;1.20;;;11.20;99.90;;;;;;5091445;28;20115;-71
2021/01/21 02:43:53;;;;;;;3.92;1.45;;;11.20;99.90;;;;;;5091410;28;20099;-71
2021/01/21 02:46:20;;;;;;;2.67;1.48;;;11.20;99.90;;;;;;5091372;28;20103;-70
2021/01/21 02:48:46;;;;;;;4.55;1.80;;;11.20;99.90;;;;;;5090967;28;20031;-71
2021/01/21 02:51:33;;;;;;;4.95;1.70;;;11.30;99.90;;;;;;5091293;28;20024;-70
2021/01/21 02:54:39;;;;;;;6.13;1.50;;;11.30;99.90;;;;;;5090723;28;20070;-70
2021/01/21 02:57:11;;;;;;;2.78;1.17;;;11.40;99.90;;;;;;5088829;28;20115;-71
2021/01/21 02:59:39;;;;;;;6.63;1.30;;;11.40;99.90;;;;;;5089541;28;20032;-70
2021/01/21 03:02:08;;;;;;;3.58;1.45;;;11.50;99.90;;;;;;5091020;28;20107;-70
2021/01/21 03:04:38;;;;;;;5.70;1.83;;;11.50;99.90;;;;;;5091013;28;20020;-71
2021/01/21 03:07:06;;;;;;;3.67;1.42;;;11.50;99.90;;;;;;5090694;28;20070;-71
2021/01/21 03:09:31;;;;;;;4.20;1.30;;;11.50;99.90;;;;;;5090829;28;20016;-71
2021/01/21 03:12:18;;;;;;;4.13;1.50;;;11.50;99.90;;;;;;5090853;28;20025;-71
2021/01/21 03:14:44;;;;;;;3.53;1.75;;;11.50;99.90;;;;;;5090298;28;20020;-71
2021/01/21 03:17:10;;;;;;;2.65;1.20;;;11.60;99.90;;;;;;5090792;28;20389;-71
2021/01/21 03:19:35;;;;;;;2.65;1.10;;;11.60;99.90;;;;;;5090714;28;20016;-71
2021/01/21 03:22:01;;;;;;;3.38;1.20;;;11.60;99.90;;;;;;5090396;28;20039;-70
2021/01/21 03:24:26;;;;;;;4.28;1.40;;;11.60;99.90;;;;;;5090613;28;20028;-71
2021/01/21 03:26:52;;;;;;;5.43;1.52;;;;;;;;;;5090594;28;20107;-71
2021/01/21 03:29:18;;;;;;;3.70;1.23;;;11.80;99.90;;;;;;5089858;28;20048;-71
2021/01/21 03:31:43;;;;;;;1.95;1.20;;;11.70;99.90;;;;;;5090473;28;20044;-71
2021/01/21 03:34:09;;;;;;;2.58;1.40;;;11.70;99.90;;;;;;5090194;28;20059;-71
2021/01/21 03:36:34;;;;;;;2.38;1.40;;;11.60;99.90;;;;;;5090414;28;20504;-71
2021/01/21 03:39:00;;;;;;;4.72;1.83;;;11.60;99.90;;;;;;5090353;28;20034;-70
2021/01/21 03:41:25;;;;;;;2.28;1.45;;;11.60;99.90;;;;;;5078032;28;20063;-71
2021/01/21 03:43:51;;;;;;;4.82;1.65;;;11.80;99.90;;;;;;5075607;28;20032;-71
2021/01/21 03:46:16;;;;;;;4.00;1.30;;;11.60;99.90;;;;;;5075293;28;20028;-71
2021/01/21 03:48:42;;;;;;;4.60;1.52;;;11.60;99.90;;;;;;5076105;28;20443;-71
2021/01/21 03:51:07;;;;;;;3.72;1.17;;;11.70;99.90;;;;;;5076401;28;20025;-71
2021/01/21 03:53:33;;;;;;;5.43;1.63;;;11.80;99.90;;;;;;5076352;28;20021;-71
2021/01/21 03:55:58;;;;;;;3.53;1.30;;;11.80;99.90;;;;;;5075016;28;20024;-71
2021/01/21 03:58:24;;;;;;;2.95;1.40;;;11.70;99.90;;;;;;5076539;28;20104;-71
2021/01/21 04:00:50;;;;;;;3.22;1.35;;;11.80;99.90;;;;;;5074916;28;20378;-71
2021/01/21 04:03:15;;;;;;;4.68;1.63;;;11.90;99.90;;;;;;5076169;28;20032;-70
2021/01/21 04:05:41;;;;;;;2.10;1.25;;;12.00;99.90;;;;;;5076126;28;20036;-70
2021/01/21 04:08:07;;;;;;;3.50;1.33;;;12.10;99.90;;;;;;5076597;28;20413;-71
2021/01/21 04:10:32;;;;;;;5.07;1.58;;;12.10;99.90;;;;;;5076035;28;20031;-71
2021/01/21 04:12:58;;;;;;;5.93;1.30;;;12.00;99.90;;;;;;5075682;28;20033;-71
2021/01/21 04:15:23;;;;;;;4.00;1.10;;;12.00;99.90;;;;;;5075937;28;20020;-71
2021/01/21 04:17:49;;;;;;;5.35;1.10;;;12.00;99.90;;;;;;5075886;28;20481;-70
2021/01/21 04:20:15;;;;;;;7.30;1.45;;;12.00;99.90;;;;;;5076108;28;20028;-70
2021/01/21 04:22:40;;;;;;;5.15;1.20;;;11.90;99.90;;;;;;5076065;28;20416;-71
2021/01/21 04:25:06;;;;;;;2.65;1.33;;;11.90;99.90;;;;;;5076025;28;20032;-71
2021/01/21 04:27:32;;;;;;;5.25;1.10;;;11.70;99.90;;;;;;5074825;28;20078;-70
2021/01/21 04:29:57;;;;;;;3.53;1.15;;;11.80;99.90;;;;;;5075255;28;20493;-71
2021/01/21 04:32:23;;;;;;;2.75;1.40;;;11.70;99.90;;;;;;5075906;28;20032;-71
2021/01/21 04:34:48;;;;;;;5.47;1.50;;;11.70;99.90;;;;;;5075532;28;20091;-70
2021/01/21 04:37:14;;;;;;;3.90;1.70;;;11.70;99.90;;;;;;5075509;28;20089;-70
2021/01/21 04:39:40;;;;;;;2.80;1.45;;;11.60;99.90;;;;;;5075733;28;20110;-71
2021/01/21 04:42:06;;;;;;;2.30;1.40;;;11.70;99.90;;;;;;5075374;28;20025;-71
2021/01/21 04:44:31;;;;;;;5.68;1.65;;;11.60;99.90;;;;;;5075649;28;20522;-71
2021/01/21 04:46:59;;;;;;;3.50;1.50;;;11.60;99.90;;;;;;5075580;28;20488;-71
2021/01/21 04:49:27;;;;;;;6.97;1.45;;;11.60;99.90;;;;;;5074882;28;20025;-71
2021/01/21 04:51:57;;;;;;;2.70;1.40;;;11.60;99.90;;;;;;5074520;28;20108;-71
2021/01/21 04:54:27;;;;;;;3.13;1.42;;;11.60;99.90;;;;;;5075418;28;20032;-71
2021/01/21 04:56:59;;;;;;;4.75;1.45;;;11.70;99.90;;;;;;5075368;28;20021;-71
2021/01/21 04:59:30;;;;;;;3.88;1.40;;;11.60;99.90;;;;;;5073946;28;20028;-71
2021/01/21 05:01:56;;;;;;;2.70;1.08;;;11.60;99.90;;;;;;5074716;28;20025;-71
2021/01/21 05:04:22;;;;;;;5.13;1.35;;;11.60;99.90;;;;;;5075212;28;20031;-71
2021/01/21 05:06:48;;;;;;;2.40;1.40;;;11.80;99.90;;;;;;5075142;28;20111;-71
2021/01/21 05:09:15;;;;;;;4.97;1.20;;;11.80;99.90;;;;;;5075044;28;20435;-71
2021/01/21 05:11:41;;;;;;;2.45;1.20;;;11.80;99.90;;;;;;5075070;28;20082;-70
2021/01/21 05:14:07;;;;;;;1.30;1.00;;;11.90;99.90;;;;;;5075028;28;20446;-71
2021/01/21 05:16:34;;;;;;;4.22;1.33;;;11.90;99.90;;;;;;5074438;28;20082;-70
2021/01/21 05:19:00;;;;;;;4.70;1.20;;;11.90;99.90;;;;;;5074634;28;20107;-70
2021/01/21 05:21:26;;;;;;;1.48;1.13;;;12.00;99.90;;;;;;5074840;28;20107;-70
2021/01/21 05:23:54;;;;;;;2.30;1.25;;;12.00;99.90;;;;;;5074844;28;20426;-70
2021/01/21 05:26:21;;;;;;;1.55;0.90;;;12.20;99.90;;;;;;5074803;28;20420;-71
2021/01/21 05:28:48;;;;;;;2.30;1.20;;;12.20;99.90;;;;;;5074137;28;20045;-71
2021/01/21 05:31:14;;;;;;;1.52;1.10;;;12.20;99.90;;;;;;5074685;28;20017;-71
2021/01/21 05:33:39;;;;;;;2.35;0.98;;;12.10;99.90;;;;;;5074625;28;20450;-71
2021/01/21 05:36:06;;;;;;;1.55;0.90;;;12.20;99.90;;;;;;5074595;28;20082;-70
2021/01/21 05:38:32;;;;;;;3.30;1.08;;;12.20;99.90;;;;;;5074312;28;20389;-71
2021/01/21 05:40:58;;;;;;;2.88;1.15;;;12.10;99.90;;;;;;5072852;28;20036;-70
2021/01/21 05:43:24;;;;;;;5.20;1.02;;;12.20;99.90;;;;;;5074499;28;20090;-71
2021/01/21 05:45:51;;;;;;;2.63;0.93;;;12.30;99.90;;;;;;5074471;28;20453;-71
2021/01/21 05:48:17;;;;;;;1.60;1.23;;;12.30;99.90;;;;;;5073758;28;20025;-71
2021/01/21 05:50:43;;;;;;;1.45;0.88;;;12.40;99.90;;;;;;5073861;28;20428;-71
2021/01/21 05:53:10;;;;;;;2.67;0.98;;;12.30;99.90;;;;;;5074102;28;20078;-70
2021/01/21 05:55:39;;;;;;;2.35;0.90;;;12.40;99.90;;;;;;5074335;28;20454;-70
2021/01/21 05:58:07;;;;;;;3.50;1.30;;;12.40;99.90;;;;;;5073780;28;20027;-70
2021/01/21 06:00:34;;;;;;;3.85;1.00;;;12.40;99.90;;;;;;5074229;28;20027;-70
2021/01/21 06:03:00;;;;;;;0.68;0.65;;;12.50;99.90;;;;;;5073693;28;20100;-70
2021/01/21 06:05:26;;;;;;;2.35;1.08;;;12.50;99.90;;;;;;5073906;28;20036;-70
2021/01/21 06:07:52;;;;;;;2.92;0.95;;;12.50;99.90;;;;;;5073608;28;20020;-70
2021/01/21 06:10:19;;;;;;;1.08;0.80;;;12.40;99.90;;;;;;5074049;28;20054;-70
2021/01/21 06:12:48;;;;;;;2.50;0.77;;;12.30;99.90;;;;;;5074142;28;20024;-70
2021/01/21 06:15:15;;;;;;;3.25;1.08;;;12.30;99.90;;;;;;5074075;28;20020;-70
2021/01/21 06:17:42;;;;;;;6.05;1.60;;;12.20;99.90;;;;;;5074004;28;20029;-70
2021/01/21 06:20:08;;;;;;;4.65;0.73;;;11.30;99.90;;;;;;5073751;28;20478;-71
2021/01/21 06:22:35;;;;;;;0.65;0.30;;;9.40;99.90;;;;;;5072168;28;20048;-71
2021/01/21 06:25:04;;;;;;;0.28;0.28;;;8.30;99.90;;;;;;5072200;28;20031;-71
2021/01/21 06:27:33;;;;;;;0.40;0.40;;;7.70;99.90;;;;;;5073434;28;20039;-69
2021/01/21 06:30:00;;;;;;;1.23;0.50;;;7.50;99.90;;;;;;5073233;28;20048;-71
2021/01/21 06:32:32;;;;;;;0.45;0.25;;;7.40;99.90;;;;;;5072466;28;20036;-72
2021/01/21 06:35:03;;;;;;;2.30;0.40;;;7.20;99.90;;;;;;5073926;28;20420;-72
2021/01/21 06:37:32;;;;;;;1.63;0.60;;;7.20;99.90;;;;;;5072742;28;20028;-71
2021/01/21 06:40:06;;;;;;;0.80;0.40;;;7.10;99.90;;;;;;5072402;28;20033;-71
2021/01/21 06:42:36;;;;;;;1.02;0.68;;;7.00;99.90;;;;;;5073815;28;20021;-71
2021/01/21 06:45:03;;;;;;;0.52;0.52;;;7.00;99.90;;;;;;5073757;28;20021;-71
2021/01/21 06:47:30;;;;;;;1.77;0.82;;;7.00;99.90;;;;;;5072235;28;20078;-71
2021/01/21 06:49:59;;;;;;;0.30;0.30;;;7.00;99.90;;;;;;5073548;28;20044;-71
2021/01/21 06:52:28;;;;;;;0.65;0.40;;;6.90;99.90;;;;;;5072242;28;20487;-71
2021/01/21 06:54:55;;;;;;;0.88;0.52;;;6.90;99.90;;;;;;5073427;28;20024;-71
2021/01/21 07:00:17;;;;;;;1.73;0.50;;;7.00;99.90;;;;;;5112222;27;20400;-69
2021/01/21 07:02:47;;;;;;;3.53;0.50;;;7.00;99.90;;;;;;5111382;28;20051;-71
2021/01/21 07:05:22;;;;;;;2.55;0.40;;;7.00;99.90;;;;;;5110616;28;20047;-71
2021/01/21 07:13:23;;;;;;;3.50;0.60;;;7.00;99.90;;;;;;5091966;28;20352;-69
2021/01/21 07:15:55;;;;;;;6.20;0.80;;;7.00;99.90;;;;;;5091259;28;20381;-69
2021/01/21 07:18:23;;;;;;;1.85;0.73;;;6.90;99.90;;;;;;5091235;28;20462;-69
2021/01/21 07:21:07;;;;;;;3.13;0.80;;;6.90;99.90;;;;;;5091154;28;20466;-70
2021/01/21 07:23:39;;;;;;;3.30;0.80;;;6.90;99.90;;;;;;5091029;28;20016;-69
2021/01/21 07:26:27;;;;;;;0.65;0.50;;;6.90;99.90;;;;;;5089884;28;20446;-69
2021/01/21 07:29:03;;;;;;;3.92;1.02;;;6.90;99.90;;;;;;5089635;28;20386;-70
2021/01/21 07:31:49;;;;;;;4.22;0.93;;;6.80;99.90;;;;;;5091062;28;20016;-70
2021/01/21 07:34:38;;;;;;;1.88;0.55;;;6.80;99.90;;;;;;5090573;28;20097;-70
2021/01/21 07:40:10;;;;;;;6.88;0.75;;;6.80;99.90;;;;;;5112033;27;20424;-70
2021/01/21 07:48:21;;;;;;;6.70;1.15;;;6.80;99.90;;;;;;5112041;27;20347;-70
2021/01/21 07:50:48;;;;;;;2.38;0.63;;;6.90;99.90;;;;;;5109736;28;20032;-71
2021/01/21 07:53:18;;;;;;;3.08;0.90;;;6.90;99.90;;;;;;5109958;28;20099;-71
2021/01/21 07:55:44;;;;;;;4.57;1.15;;;6.80;99.90;;;;;;5111330;28;20076;-71
2021/01/21 07:58:23;;;;;;;7.15;1.23;;;6.80;99.90;;;;;;5110306;28;20549;-71
2021/01/21 08:00:51;;;;;;;5.80;1.30;;;6.90;99.90;;;;;;5110993;28;20513;-69
2021/01/21 08:03:39;;;;;;;3.40;0.98;;;6.80;99.90;;;;;;5111351;28;20027;-71
2021/01/21 08:06:11;;;;;;;2.88;1.05;;;6.90;99.90;;;;;;5111085;28;20051;-71
2021/01/21 08:08:39;;;;;;;4.57;1.48;;;6.90;99.90;;;;;;5110775;28;20421;-69
2021/01/21 08:11:06;;;;;;;5.05;1.40;;;6.90;99.90;;;;;;5110497;28;20095;-71
2021/01/21 08:13:33;;;;;;;4.35;1.20;;;6.90;99.90;;;;;;5110079;28;20018;-71
2021/01/21 08:16:05;;;;;;;15.55;2.20;;;6.90;99.90;;;;;;5109281;28;20028;-71
2021/01/21 08:18:32;;;;;;;5.03;1.35;;;6.90;99.90;;;;;;5110590;28;20098;-69
2021/01/21 08:20:58;;;;;;;8.30;1.60;;;6.90;99.90;;;;;;5110742;28;20016;-70
2021/01/21 08:23:23;;;;;;;5.78;1.17;;;7.00;99.90;;;;;;5110597;28;20131;-69
2021/01/21 08:25:53;;;;;;;7.47;1.35;;;6.90;99.90;;;;;;5110568;28;20398;-69
2021/01/21 08:28:20;;;;;;;6.70;1.13;;;6.90;99.90;;;;;;5110756;28;20020;-71
2021/01/21 08:30:48;;;;;;;6.30;1.33;;;6.90;99.90;;;;;;5110415;28;20027;-71
2021/01/21 08:33:22;;;;;;;11.35;1.75;;;6.90;99.90;;;;;;5110393;28;20038;-71
2021/01/21 08:35:55;;;;;;;7.85;1.55;;;6.90;99.90;;;;;;5109122;28;20027;-71
2021/01/21 08:38:24;;;;;;;9.83;1.87;;;6.90;99.90;;;;;;5110329;28;20068;-69
2021/01/21 08:40:52;;;;;;;7.32;2.08;;;6.90;99.90;;;;;;5109715;28;20253;-69
2021/01/21 08:43:19;;;;;;;8.93;2.33;;;6.90;99.90;;;;;;5109858;28;20016;-71
2021/01/21 08:45:45;;;;;;;6.75;1.85;;;6.90;99.90;;;;;;5091329;28;20032;-72
2021/01/21 08:48:24;;;;;;;7.63;1.85;;;6.90;99.90;;;;;;5109631;28;20023;-71
2021/01/21 08:50:49;;;;;;;5.35;1.65;;;6.90;99.90;;;;;;5109305;28;20019;-69
2021/01/21 08:53:21;;;;;;;5.97;1.48;;;6.90;99.90;;;;;;5109103;28;20020;-71
2021/01/21 08:55:51;;;;;;;7.10;1.67;;;6.90;99.90;;;;;;5109971;28;20099;-71
2021/01/21 08:58:18;;;;;;;12.13;1.50;;;6.80;99.90;;;;;;5102077;28;20024;-69
2021/01/21 09:01:06;;;;;;;13.60;2.28;;;6.80;99.90;;;;;;5096379;28;20081;-69
2021/01/21 09:03:48;;;;;;;8.20;1.90;;;6.80;99.90;;;;;;5095588;28;20020;-71
2021/01/21 09:06:19;;;;;;;7.93;2.23;;;6.80;99.90;;;;;;5095477;28;20056;-71
2021/01/21 09:08:49;;;;;;;8.60;1.85;;;6.90;99.90;;;;;;5095473;28;20077;-71
2021/01/21 09:11:38;;;;;;;7.38;1.80;;;7.00;99.90;;;;;;5095866;28;20086;-71
2021/01/21 09:14:05;;;;;;;7.28;1.88;;;7.50;99.90;;;;;;5095623;28;20534;-71
2021/01/21 09:16:49;;;;;;;12.45;2.20;;;8.60;99.90;;;;;;5096208;28;20056;-71
2021/01/21 09:19:17;;;;;;;9.18;2.63;;;9.40;99.90;;;;;;5094498;28;20107;-71
2021/01/21 09:21:59;;;;;;;10.13;1.83;;;10.30;99.90;;;;;;5095753;28;20123;-71
2021/01/21 09:24:24;;;;;;;8.82;2.05;;;11.10;99.90;;;;;;5095824;28;20461;-71
2021/01/21 09:27:13;;;;;;;6.13;1.60;;;11.30;99.90;;;;;;5094550;28;20042;-71
2021/01/21 09:29:46;;;;;;;7.55;1.48;;;12.00;99.90;;;;;;5095811;28;20016;-69
2021/01/21 09:32:12;;;;;;;;;;;11.70;99.90;;;;;;5096007;28;20095;-69
2021/01/21 09:34:38;;;;;;;4.43;1.50;;;11.80;99.90;;;;;;5095446;28;19934;-69
2021/01/21 09:37:03;;;;;;;7.80;1.77;;;12.10;99.90;;;;;;5095507;28;20032;-69
2021/01/21 09:39:29;;;;;;;7.10;2.17;;;12.40;99.90;;;;;;5094833;28;20034;-69
2021/01/21 09:41:54;;;;;;;6.38;1.92;;;12.80;99.90;;;;;;5094716;28;20032;-71
2021/01/21 09:44:20;;;;;;;9.40;2.15;;;12.40;99.90;;;;;;5094624;28;20028;-69
2021/01/21 09:46:45;;;;;;;5.28;1.80;;;12.60;99.90;;;;;;5094388;28;20048;-70
2021/01/21 09:49:11;;;;;;;5.43;1.80;;;11.70;99.90;;;;;;5095187;28;20020;-70
2021/01/21 09:51:36;;;;;;;6.22;1.80;;;12.40;99.90;;;;;;5094996;28;20457;-70
2021/01/21 09:54:02;;;;;;;6.88;2.17;;;12.60;99.90;;;;;;5093404;28;20034;-72
2021/01/21 09:56:28;;;;;;;5.10;1.42;;;12.60;99.90;;;;;;5095002;28;20024;-71
2021/01/21 09:58:53;;;;;;;7.60;2.00;;;12.70;99.90;;;;;;5095260;28;20031;-70
2021/01/21 10:01:19;;;;;;;9.13;1.80;;;12.40;99.90;;;;;;5094359;28;20035;-70
2021/01/21 10:03:44;;;;;;;13.32;2.30;;;13.10;99.90;;;;;;5095038;28;20020;-70
2021/01/21 10:06:10;;;;;;;7.13;1.80;;;13.30;99.90;;;;;;5094563;28;20388;-70
2021/01/21 10:08:35;;;;;;;7.55;1.52;;;13.80;99.90;;;;;;5094739;28;20031;-70
2021/01/21 10:11:01;;;;;;;6.65;1.63;;;13.30;99.90;;;;;;5093504;28;20024;-70
2021/01/21 10:13:26;;;;;;;5.10;1.90;;;13.50;99.90;;;;;;5094923;28;20020;-70
2021/01/21 10:15:52;;;;;;;6.60;1.77;;;12.20;99.90;;;;;;5076716;28;20023;-70
2021/01/21 10:18:17;;;;;;;8.52;1.92;;;11.90;99.90;;;;;;5094492;28;20040;-70
2021/01/21 10:20:43;;;;;;;7.93;1.77;;;10.90;99.90;;;;;;5094747;28;20099;-70
2021/01/21 10:23:08;;;;;;;8.15;1.52;;;10.90;99.90;;;;;;5094559;28;20451;-70
2021/01/21 10:25:34;;;;;;;8.55;1.60;;;10.60;99.90;;;;;;5094903;28;20024;-70
2021/01/21 10:27:59;;;;;;;4.93;1.48;;;11.50;99.90;;;;;;5095076;28;20031;-70
2021/01/21 10:30:25;;;;;;;6.80;1.63;;;11.30;99.90;;;;;;5094850;28;20417;-70
2021/01/21 10:32:51;;;;;;;9.60;1.50;;;10.70;99.90;;;;;;5094618;28;20028;-70
2021/01/21 10:35:19;;;;;;;10.63;1.83;;;10.10;99.90;;;;;;5093704;28;20055;-70
2021/01/21 10:37:45;;;;;;;8.45;1.80;;;10.40;99.90;;;;;;5094193;28;20031;-70
2021/01/21 10:40:11;;;;;;;9.35;1.77;;;10.00;99.90;;;;;;5094208;28;20099;-70
2021/01/21 10:42:36;;;;;;;8.35;1.80;;;9.70;99.90;;;;;;5093749;28;20380;-70
2021/01/21 10:45:03;;;;;;;6.25;1.88;;;10.10;99.90;;;;;;5094318;28;20126;-70
2021/01/21 10:47:28;;;;;;;8.90;1.48;;;10.40;99.90;;;;;;5089179;28;20134;-70
2021/01/21 10:49:54;;;;;;;8.65;1.70;;;10.20;99.90;;;;;;5093938;28;20099;-70
2021/01/21 10:52:19;;;;;;;10.82;1.98;;;10.40;99.90;;;;;;5094091;28;20103;-71
2021/01/21 10:54:46;;;;;;;8.43;2.10;;;10.90;99.90;;;;;;5094016;28;20540;-70
2021/01/21 10:57:11;;;;;;;6.50;1.40;;;11.00;99.90;;;;;;5093766;28;20107;-70
2021/01/21 10:59:37;;;;;;;10.90;1.70;;;10.80;99.90;;;;;;5085800;28;20095;-71
2021/01/21 11:02:02;;;;;;;8.95;1.92;;;10.40;99.90;;;;;;5085451;28;20027;-70
2021/01/21 11:04:29;;;;;;;7.65;1.90;;;10.90;99.90;;;;;;5081142;28;20098;-70
2021/01/21 11:06:54;;;;;;;9.52;2.03;;;10.70;99.90;;;;;;5084895;28;20020;-70
2021/01/21 11:09:29;;;;;;;8.35;2.13;;;10.50;99.90;;;;;;5072387;28;20035;-70
2021/01/21 11:11:55;;;;;;;12.27;1.73;;;10.30;99.90;;;;;;5080403;28;20453;-71
2021/01/21 11:14:20;;;;;;;9.55;1.63;;;10.20;99.90;;;;;;5093456;28;20069;-70
2021/01/21 11:16:46;;;;;;;8.65;1.92;;;10.70;99.90;;;;;;5087128;28;20024;-70
2021/01/21 11:19:11;;;;;;;16.98;2.15;;;10.70;99.90;;;;;;5055141;28;20055;-70
2021/01/21 11:21:37;;;;;;;6.80;2.08;;;10.90;99.90;;;;;;5072000;28;20504;-70
2021/01/21 11:24:02;;;;;;;7.43;1.40;;;11.00;99.90;;;;;;5072819;28;20039;-72
2021/01/21 11:26:28;;;;;;;10.73;2.08;;;10.60;99.90;;;;;;5077044;28;20031;-72
2021/01/21 11:28:53;;;;;;;9.73;1.33;;;10.70;99.90;;;;;;5093689;28;20024;-71
2021/01/21 11:31:19;;;;;;;5.68;1.30;;;10.20;99.90;;;;;;5090744;28;20055;-70
2021/01/21 11:33:44;;;;;;;9.43;1.55;;;9.90;99.90;;;;;;5085213;28;20016;-70
2021/01/21 11:36:10;;;;;;;8.15;2.00;;;9.80;99.90;;;;;;5076097;28;20024;-71
2021/01/21 11:38:35;;;;;;;5.78;1.55;;;10.00;99.90;;;;;;5072735;28;20028;-70
2021/01/21 11:41:01;;;;;;;8.57;1.70;;;9.50;99.90;;;;;;5088456;28;20031;-71
2021/01/21 11:43:27;;;;;;;7.70;1.88;;;9.50;99.90;;;;;;5093389;28;20032;-71
2021/01/21 11:45:52;;;;;;;7.60;1.55;;;9.40;99.90;;;;;;5078694;28;20020;-72
2021/01/21 11:48:18;;;;;;;4.32;1.45;;;9.30;99.90;;;;;;5072242;28;20060;-71
2021/01/21 11:50:44;;;;;;;13.77;1.70;;;9.10;99.90;;;;;;5084442;28;20025;-72
2021/01/21 11:53:10;;;;;;;9.40;1.88;;;9.00;99.90;;;;;;5093039;28;20028;-72
2021/01/21 11:55:36;;;;;;;7.05;1.80;;;9.00;99.90;;;;;;5092378;28;20473;-72
2021/01/21 11:58:01;;;;;;;8.15;2.45;;;8.90;99.90;;;;;;5092909;28;20032;-72
2021/01/21 12:00:27;;;;;;;8.45;2.28;;;8.90;99.90;;;;;;5081707;28;20036;-72
2021/01/21 12:02:53;;;;;;;10.95;2.10;;;9.10;99.90;;;;;;5080318;28;20025;-72
2021/01/21 12:05:19;;;;;;;7.10;1.80;;;9.10;99.90;;;;;;5088884;28;20430;-72
2021/01/21 12:07:44;;;;;;;13.05;2.45;;;9.00;99.90;;;;;;5075919;28;20114;-72
2021/01/21 12:10:11;;;;;;;9.88;1.75;;;9.10;99.90;;;;;;5093238;28;20020;-72
2021/01/21 12:12:37;;;;;;;5.72;1.77;;;9.20;99.90;;;;;;5086507;28;20020;-72
2021/01/21 12:15:03;;;;;;;7.93;1.77;;;9.20;99.90;;;;;;5072670;28;20024;-72
2021/01/21 12:17:28;;;;;;;10.13;1.75;;;9.30;99.90;;;;;;5076623;28;20020;-72
2021/01/21 12:19:54;;;;;;;5.57;1.63;;;9.30;99.90;;;;;;5091371;28;20024;-72
2021/01/21 12:22:19;;;;;;;4.93;1.27;;;9.30;99.90;;;;;;5089685;28;20028;-72
2021/01/21 12:24:45;;;;;;;6.13;1.95;;;9.20;99.90;;;;;;5073790;28;20036;-72
2021/01/21 12:27:10;;;;;;;3.50;1.60;;;9.10;99.90;;;;;;5092103;28;20093;-72
2021/01/21 12:29:36;;;;;;;10.18;1.55;;;9.10;99.90;;;;;;5093018;28;20052;-72
2021/01/21 12:32:02;;;;;;;3.78;1.35;;;8.90;99.90;;;;;;5093074;28;20086;-71
2021/01/21 12:34:28;;;;;;;9.63;1.75;;;8.80;99.90;;;;;;5094975;28;20054;-71
2021/01/21 12:36:54;;;;;;;6.53;1.20;;;8.80;99.90;;;;;;5096623;28;20123;-72
2021/01/21 12:39:20;;;;;;;5.88;1.25;;;8.80;99.90;;;;;;5095643;28;20119;-72
2021/01/21 12:41:46;;;;;;;4.63;1.60;;;8.80;99.90;;;;;;5096435;28;20024;-73
2021/01/21 12:44:12;;;;;;;5.72;1.40;;;8.80;99.90;;;;;;5094817;28;20028;-72
2021/01/21 12:46:37;;;;;;;5.25;1.48;;;8.80;99.90;;;;;;5096288;28;20446;-72
2021/01/21 12:49:03;;;;;;;6.20;2.00;;;8.80;99.90;;;;;;5078795;28;20033;-73
2021/01/21 12:51:28;;;;;;;5.50;1.27;;;8.80;99.90;;;;;;5075883;28;20047;-73
2021/01/21 12:53:54;;;;;;;8.40;1.60;;;8.80;99.90;;;;;;5088246;28;20031;-72
2021/01/21 12:56:19;;;;;;;8.95;1.55;;;8.90;99.90;;;;;;5075712;28;20370;-72
2021/01/21 12:58:45;;;;;;;4.95;1.52;;;8.90;99.90;;;;;;5088115;28;20043;-72
2021/01/21 13:01:11;;;;;;;5.25;1.58;;;8.90;99.90;;;;;;5096515;28;20034;-73
2021/01/21 13:03:37;;;;;;;5.97;1.55;;;8.90;99.90;;;;;;5084193;28;20043;-72
2021/01/21 13:06:04;;;;;;;6.22;1.65;;;8.80;99.90;;;;;;5075799;28;20058;-72
2021/01/21 13:08:30;;;;;;;5.35;1.55;;;8.80;99.90;;;;;;5082001;28;20024;-72
2021/01/21 13:10:56;;;;;;;4.22;1.25;;;8.80;99.90;;;;;;5086894;28;20024;-72
2021/01/21 13:13:23;;;;;;;3.95;1.10;;;8.70;99.90;;;;;;5087936;28;20028;-72
2021/01/21 13:15:49;;;;;;;3.45;1.65;;;8.60;99.90;;;;;;5075643;28;20020;-72